Time;durP1;ratioP1;P1;durP2;ratioP2;P2;SDS_P1;SDS_P2;PMS_P1;PMS_P2;Temp;Humidity;BMP_temperature;BMP_pressure;BME280_temperature;BME280_humidity;BME280_pressure;Samples;Min_cycle;Max_cycle;Signal;HPM_P1;HPM_P2
2022/03/17 00:00:46;;;;;;;59.90;32.50;;;4.50;99.90;;;;;;5055549;28;20071;-76
2022/03/17 00:03:13;;;;;;;42.30;23.37;;;4.60;99.90;;;;;;5055383;28;20045;-77
2022/03/17 00:05:40;;;;;;;41.10;20.43;;;4.60;99.90;;;;;;5056247;28;20052;-75
2022/03/17 00:08:06;;;;;;;42.20;21.97;;;4.50;99.90;;;;;;5055448;28;20045;-76
2022/03/17 00:10:33;;;;;;;40.47;20.40;;;4.60;99.90;;;;;;5055569;28;20041;-77
2022/03/17 00:13:00;;;;;;;39.90;22.33;;;4.60;99.90;;;;;;5055565;28;20045;-77
2022/03/17 00:15:27;;;;;;;42.97;22.03;;;4.60;99.90;;;;;;5055791;28;20045;-77
2022/03/17 00:17:55;;;;;;;42.50;21.70;;;4.60;99.90;;;;;;5055346;28;20433;-78
2022/03/17 00:20:23;;;;;;;40.13;22.67;;;4.60;99.90;;;;;;5055170;28;20048;-76
2022/03/17 00:22:50;;;;;;;39.67;20.43;;;4.50;99.90;;;;;;5054958;28;20122;-77
2022/03/17 00:25:17;;;;;;;38.27;20.80;;;4.50;99.90;;;;;;5055942;28;20049;-77
2022/03/17 00:27:45;;;;;;;37.83;18.80;;;4.50;99.90;;;;;;5055764;28;20052;-77
2022/03/17 00:30:12;;;;;;;41.30;19.03;;;4.40;99.90;;;;;;5055018;28;20067;-77
2022/03/17 00:32:39;;;;;;;42.47;22.67;;;4.40;99.90;;;;;;5056091;28;20045;-77
2022/03/17 00:37:53;;;;;;;41.03;20.33;;;4.30;99.90;;;;;;5055425;28;20114;-77
2022/03/17 00:40:20;;;;;;;37.57;19.77;;;4.20;99.90;;;;;;5054856;28;20049;-77
2022/03/17 00:42:47;;;;;;;35.67;18.63;;;4.10;99.90;;;;;;5054865;28;20045;-77
2022/03/17 00:45:14;;;;;;;44.33;21.03;;;4.00;99.90;;;;;;5054462;28;20129;-76
2022/03/17 00:47:41;;;;;;;40.00;20.07;;;4.00;99.90;;;;;;5055031;28;20045;-78
2022/03/17 00:50:11;;;;;;;41.37;20.10;;;3.90;99.90;;;;;;5055094;28;20052;-77
2022/03/17 00:52:38;;;;;;;37.93;22.17;;;4.00;99.90;;;;;;5055026;28;20052;-77
2022/03/17 00:55:06;;;;;;;43.73;24.43;;;4.10;99.90;;;;;;5054739;28;20079;-77
2022/03/17 00:57:34;;;;;;;43.07;21.10;;;4.10;99.90;;;;;;5055259;28;20384;-77
2022/03/17 01:00:00;;;;;;;40.80;19.40;;;4.20;99.90;;;;;;5055006;28;20048;-77
2022/03/17 01:02:27;;;;;;;38.70;22.20;;;4.10;99.90;;;;;;5054745;28;20415;-77
2022/03/17 01:04:54;;;;;;;34.20;19.10;;;4.10;99.90;;;;;;5054178;28;20041;-77
2022/03/17 01:07:22;;;;;;;39.23;21.27;;;4.00;99.90;;;;;;5053661;28;20049;-75
2022/03/17 01:09:48;;;;;;;38.17;20.47;;;3.90;99.90;;;;;;5053891;28;20049;-76
2022/03/17 01:12:15;;;;;;;40.73;21.40;;;3.80;99.90;;;;;;5054905;28;20045;-77
2022/03/17 01:14:42;;;;;;;38.97;20.60;;;3.70;99.90;;;;;;5053497;28;20499;-77
2022/03/17 01:17:08;;;;;;;48.17;23.63;;;3.70;99.90;;;;;;5054104;28;20098;-76
2022/03/17 01:19:35;;;;;;;45.67;20.37;;;3.70;99.90;;;;;;5054333;28;20495;-76
2022/03/17 01:22:02;;;;;;;41.13;21.60;;;3.70;99.90;;;;;;5054706;28;20137;-76
2022/03/17 01:24:30;;;;;;;38.00;20.23;;;3.60;99.90;;;;;;5053598;28;20522;-77
2022/03/17 01:26:57;;;;;;;42.13;22.23;;;3.60;99.90;;;;;;5054352;28;20045;-76
2022/03/17 01:29:23;;;;;;;40.07;22.60;;;3.60;99.90;;;;;;5054237;28;20048;-77
2022/03/17 01:31:51;;;;;;;49.10;24.60;;;3.70;99.90;;;;;;5054208;28;20059;-77
2022/03/17 01:34:19;;;;;;;38.67;21.47;;;3.70;99.90;;;;;;5054078;28;20578;-79
2022/03/17 01:36:45;;;;;;;40.37;23.00;;;3.70;99.90;;;;;;5054641;28;20084;-77
2022/03/17 01:39:12;;;;;;;48.03;22.23;;;3.60;99.90;;;;;;5055468;28;20068;-77
2022/03/17 01:41:40;;;;;;;44.13;21.80;;;3.60;99.90;;;;;;5054365;28;20075;-76
2022/03/17 01:44:08;;;;;;;42.40;23.63;;;3.60;99.90;;;;;;5060277;28;20045;-77
2022/03/17 01:47:26;;;;;;;43.47;22.10;;;3.60;99.90;;;;;;5064714;28;20083;-77
2022/03/17 01:49:21;;;;;;;41.87;24.70;;;3.70;99.90;;;;;;5049124;28;20138;-77
2022/03/17 01:51:49;;;;;;;51.73;25.83;;;3.80;99.90;;;;;;5053814;28;20482;-76
2022/03/17 01:54:19;;;;;;;45.23;24.17;;;3.90;99.90;;;;;;5053513;28;20049;-76
2022/03/17 01:56:47;;;;;;;43.13;25.40;;;3.90;99.90;;;;;;5053670;28;20384;-76
2022/03/17 01:59:14;;;;;;;45.70;24.63;;;4.00;99.90;;;;;;5053524;28;20044;-76
2022/03/17 02:01:41;;;;;;;38.80;25.23;;;4.10;99.90;;;;;;5053744;28;20131;-77
2022/03/17 02:04:08;;;;;;;41.60;24.07;;;4.20;99.90;;;;;;5045691;28;20058;-77
2022/03/17 02:06:34;;;;;;;43.60;23.60;;;4.20;99.90;;;;;;5053952;28;20052;-77
2022/03/17 02:09:01;;;;;;;43.27;24.20;;;4.30;99.90;;;;;;5052390;28;20076;-77
2022/03/17 02:14:20;;;;;;;49.40;25.17;;;4.30;99.90;;;;;;5038098;28;20098;-76
2022/03/17 02:16:46;;;;;;;42.07;24.77;;;4.30;99.90;;;;;;5053274;28;20406;-77
2022/03/17 02:19:13;;;;;;;50.77;25.87;;;4.30;99.90;;;;;;5052581;28;20049;-76
2022/03/17 02:21:40;;;;;;;45.13;25.07;;;4.30;99.90;;;;;;5052990;28;20045;-76
2022/03/17 02:26:54;;;;;;;44.37;25.27;;;4.30;99.90;;;;;;5053203;28;20134;-78
2022/03/17 02:29:21;;;;;;;47.53;24.47;;;4.30;99.90;;;;;;5052077;28;20548;-76
2022/03/17 02:31:47;;;;;;;47.37;28.20;;;4.20;99.90;;;;;;5049949;28;20115;-77
2022/03/17 02:34:17;;;;;;;44.87;27.50;;;4.30;99.90;;;;;;5053269;28;20049;-77
2022/03/17 02:36:46;;;;;;;40.30;25.00;;;4.30;99.90;;;;;;5053611;28;20103;-77
2022/03/17 02:39:15;;;;;;;49.63;25.20;;;4.30;99.90;;;;;;5052405;28;20049;-77
2022/03/17 02:41:42;;;;;;;43.03;25.30;;;4.30;99.90;;;;;;5052378;28;20053;-76
2022/03/17 02:44:09;;;;;;;48.40;25.20;;;4.20;99.90;;;;;;5052498;28;20045;-76
2022/03/17 02:46:36;;;;;;;43.53;24.27;;;4.20;99.90;;;;;;5037138;28;20091;-76
2022/03/17 02:49:03;;;;;;;52.07;27.50;;;4.20;99.90;;;;;;5052103;28;20053;-75
2022/03/17 02:51:29;;;;;;;41.70;24.27;;;4.20;99.90;;;;;;5053450;28;20107;-76
2022/03/17 02:53:57;;;;;;;48.40;27.03;;;4.20;99.90;;;;;;5051903;28;20045;-76
2022/03/17 02:56:26;;;;;;;49.57;25.00;;;4.30;99.90;;;;;;5052816;28;20045;-75
2022/03/17 02:58:53;;;;;;;42.77;25.53;;;4.30;99.90;;;;;;5052918;28;20107;-76
2022/03/17 03:01:19;;;;;;;38.00;24.73;;;4.20;99.90;;;;;;5052864;28;20049;-76
2022/03/17 03:03:49;;;;;;;43.47;26.93;;;4.30;99.90;;;;;;5052117;28;20045;-76
2022/03/17 03:06:16;;;;;;;42.10;23.97;;;4.30;99.90;;;;;;5052981;28;20049;-77
2022/03/17 03:08:42;;;;;;;44.10;26.07;;;4.30;99.90;;;;;;5052665;28;20053;-77
2022/03/17 03:11:09;;;;;;;45.23;23.67;;;4.20;99.90;;;;;;5051790;28;20041;-76
2022/03/17 03:13:37;;;;;;;45.97;24.83;;;4.20;99.90;;;;;;5051970;28;20438;-77
2022/03/17 03:16:07;;;;;;;50.03;27.53;;;4.20;99.90;;;;;;5053076;28;20051;-77
2022/03/17 03:18:33;;;;;;;45.60;26.17;;;4.20;99.90;;;;;;5052893;28;20045;-77
2022/03/17 03:21:00;;;;;;;49.73;24.30;;;4.20;99.90;;;;;;5051555;28;20052;-77
2022/03/17 03:23:27;;;;;;;37.83;24.47;;;4.20;99.90;;;;;;5052933;28;20099;-77
2022/03/17 03:25:53;;;;;;;44.63;26.47;;;4.10;99.90;;;;;;5052351;28;20049;-77
2022/03/17 03:28:20;;;;;;;48.43;27.83;;;4.10;99.90;;;;;;5052226;28;20044;-77
2022/03/17 03:30:50;;;;;;;41.17;26.70;;;4.10;99.90;;;;;;5053211;28;20103;-76
2022/03/17 03:33:17;;;;;;;43.53;25.53;;;4.10;99.90;;;;;;5042812;28;20453;-78
2022/03/17 03:38:28;;;;;;;44.17;26.30;;;3.90;99.90;;;;;;5056343;28;20128;-78
2022/03/17 03:40:54;;;;;;;47.37;27.47;;;4.00;99.90;;;;;;5056256;28;20045;-78
2022/03/17 03:43:21;;;;;;;52.33;28.03;;;4.00;99.90;;;;;;5055964;28;20107;-78
2022/03/17 03:45:50;;;;;;;41.27;25.30;;;4.00;99.90;;;;;;5056597;28;20118;-78
2022/03/17 03:48:17;;;;;;;44.63;26.87;;;4.00;99.90;;;;;;5055996;28;20055;-78
2022/03/17 03:50:46;;;;;;;49.30;25.33;;;4.00;99.90;;;;;;5056030;28;20075;-78
2022/03/17 03:53:13;;;;;;;47.63;28.13;;;4.10;99.90;;;;;;5055909;28;20094;-78
2022/03/17 03:55:39;;;;;;;45.43;27.10;;;4.00;99.90;;;;;;5056048;28;20041;-77
2022/03/17 03:58:06;;;;;;;48.10;27.77;;;4.10;99.90;;;;;;5055466;28;20068;-76
2022/03/17 04:00:35;;;;;;;152.50;91.27;;;4.10;99.90;;;;;;5055741;28;20108;-78
2022/03/17 04:03:04;;;;;;;100.20;60.53;;;4.10;99.90;;;;;;5054877;28;20084;-77
2022/03/17 04:05:32;;;;;;;83.13;46.03;;;4.20;99.90;;;;;;5056024;28;20052;-76
2022/03/17 04:07:59;;;;;;;54.00;30.70;;;4.20;99.90;;;;;;5055503;28;20045;-75
2022/03/17 04:10:26;;;;;;;51.20;29.10;;;4.20;99.90;;;;;;5055622;28;20053;-76
2022/03/17 04:12:53;;;;;;;49.67;29.63;;;4.20;99.90;;;;;;5055089;28;20102;-76
2022/03/17 04:15:20;;;;;;;53.33;29.07;;;4.20;99.90;;;;;;5055620;28;20045;-76
2022/03/17 04:17:49;;;;;;;48.23;26.87;;;4.00;99.90;;;;;;5055784;28;20057;-76
2022/03/17 04:20:17;;;;;;;46.83;26.70;;;4.10;99.90;;;;;;5055069;28;20045;-76
2022/03/17 04:22:44;;;;;;;48.07;26.07;;;4.10;99.90;;;;;;5054597;28;20402;-76
2022/03/17 04:25:10;;;;;;;45.47;28.83;;;4.10;99.90;;;;;;5054846;28;20132;-75
2022/03/17 04:27:37;;;;;;;50.23;26.47;;;4.20;99.90;;;;;;5055036;28;20099;-76
2022/03/17 04:30:05;;;;;;;48.13;27.90;;;4.10;99.90;;;;;;5055062;28;20384;-77
2022/03/17 04:32:31;;;;;;;52.37;29.63;;;4.10;99.90;;;;;;5055469;28;20103;-78
2022/03/17 04:34:58;;;;;;;53.37;29.20;;;4.00;99.90;;;;;;5055220;28;20102;-78
2022/03/17 04:37:26;;;;;;;54.10;27.30;;;4.00;99.90;;;;;;5054939;28;20548;-77
2022/03/17 04:39:53;;;;;;;46.53;27.07;;;4.10;99.90;;;;;;5054588;28;20557;-77
2022/03/17 04:42:19;;;;;;;52.23;29.60;;;4.00;99.90;;;;;;5054108;28;20045;-77
2022/03/17 04:44:46;;;;;;;46.17;27.67;;;4.10;99.90;;;;;;5060116;28;20041;-78
2022/03/17 04:47:13;;;;;;;56.83;30.10;;;4.10;99.90;;;;;;5065468;28;20102;-77
2022/03/17 04:49:40;;;;;;;52.93;31.13;;;4.10;99.90;;;;;;5057769;28;20045;-77
2022/03/17 04:53:26;;;;;;;47.70;30.00;;;4.10;99.90;;;;;;5056713;28;20106;-91
2022/03/17 04:54:57;;;;;;;58.30;31.57;;;4.10;99.90;;;;;;5050251;28;20128;-84
2022/03/17 04:57:25;;;;;;;54.20;27.27;;;4.20;99.90;;;;;;5049565;28;20123;-82
2022/03/17 04:59:52;;;;;;;61.60;32.83;;;4.20;99.90;;;;;;5050726;28;20080;-83
2022/03/17 05:02:18;;;;;;;66.33;37.37;;;4.10;99.90;;;;;;5049201;28;20474;-86
2022/03/17 05:04:45;;;;;;;51.50;30.50;;;4.10;99.90;;;;;;5075452;28;20228;-80
2022/03/17 05:07:12;;;;;;;47.83;30.17;;;4.10;99.90;;;;;;5070290;28;20060;-80
2022/03/17 05:09:38;;;;;;;59.90;33.73;;;4.20;99.90;;;;;;5065462;28;20049;-79
2022/03/17 05:12:09;;;;;;;60.93;33.67;;;4.10;99.90;;;;;;5064862;28;20046;-80
2022/03/17 05:14:36;;;;;;;60.90;33.47;;;4.20;99.90;;;;;;5053459;28;20075;-80
2022/03/17 05:17:03;;;;;;;54.70;31.87;;;4.10;99.90;;;;;;5051565;28;20076;-79
2022/03/17 05:19:30;;;;;;;57.83;30.30;;;4.10;99.90;;;;;;5057051;28;20057;-79
2022/03/17 05:22:00;;;;;;;62.83;33.40;;;4.00;99.90;;;;;;5068360;28;20053;-79
2022/03/17 05:24:28;;;;;;;58.10;29.57;;;4.00;99.90;;;;;;5070259;28;20097;-79
2022/03/17 05:26:57;;;;;;;54.90;31.57;;;4.00;99.90;;;;;;5066775;28;20054;-81
2022/03/17 05:29:26;;;;;;;55.93;33.47;;;4.00;99.90;;;;;;5069724;28;20049;-82
2022/03/17 05:31:52;;;;;;;55.43;32.23;;;4.00;99.90;;;;;;5064596;28;20152;-79
2022/03/17 05:34:19;;;;;;;62.87;34.60;;;3.90;99.90;;;;;;5063473;28;20051;-81
2022/03/17 05:36:49;;;;;;;54.50;33.70;;;3.90;99.90;;;;;;5068623;28;20045;-86
2022/03/17 05:39:15;;;;;;;66.77;34.17;;;3.90;99.90;;;;;;5066773;28;20052;-81
2022/03/17 05:41:42;;;;;;;57.30;33.23;;;3.90;99.90;;;;;;5065677;28;20057;-77
2022/03/17 05:44:12;;;;;;;66.03;34.83;;;3.90;99.90;;;;;;5053552;28;20053;-79
2022/03/17 05:46:40;;;;;;;59.97;34.03;;;3.90;99.90;;;;;;5054206;28;20053;-80
2022/03/17 05:49:07;;;;;;;62.40;34.43;;;3.80;99.90;;;;;;5049456;28;20075;-82
2022/03/17 05:51:34;;;;;;;46.17;29.97;;;3.80;99.90;;;;;;5049354;28;20041;-83
2022/03/17 05:54:01;;;;;;;53.73;31.20;;;3.70;99.90;;;;;;5052287;28;20045;-80
2022/03/17 05:56:28;;;;;;;62.77;32.10;;;3.80;99.90;;;;;;5046455;28;20048;-82
2022/03/17 05:58:55;;;;;;;60.07;32.40;;;3.70;99.90;;;;;;5046101;28;20052;-79
2022/03/17 06:01:24;;;;;;;56.03;33.43;;;3.50;99.90;;;;;;5046187;28;20045;-84
2022/03/17 06:03:52;;;;;;;69.20;33.63;;;3.50;99.90;;;;;;5051175;28;20056;-81
2022/03/17 06:06:19;;;;;;;59.87;31.03;;;3.60;99.90;;;;;;5048668;28;20120;-82
2022/03/17 06:08:46;;;;;;;63.13;31.27;;;3.50;99.90;;;;;;5052473;28;20115;-76
2022/03/17 06:11:12;;;;;;;78.23;43.77;;;3.50;99.90;;;;;;5046474;28;20052;-77
2022/03/17 06:13:39;;;;;;;60.20;33.20;;;3.50;99.90;;;;;;5046245;28;20040;-77
2022/03/17 06:16:06;;;;;;;59.67;33.37;;;3.50;99.90;;;;;;5047972;28;20037;-82
2022/03/17 06:18:33;;;;;;;58.40;33.33;;;3.50;99.90;;;;;;5052483;28;20045;-82
2022/03/17 06:21:03;;;;;;;58.77;34.27;;;3.60;99.90;;;;;;5048700;28;20040;-78
2022/03/17 06:23:30;;;;;;;50.27;30.90;;;3.80;99.90;;;;;;5053292;28;20052;-76
2022/03/17 06:25:56;;;;;;;66.97;35.77;;;3.80;99.90;;;;;;5053125;28;20049;-80
2022/03/17 06:28:23;;;;;;;56.13;32.97;;;3.80;99.90;;;;;;5053381;28;20041;-79
2022/03/17 06:30:51;;;;;;;61.73;33.00;;;3.90;99.90;;;;;;5052659;28;20049;-82
2022/03/17 06:33:18;;;;;;;60.97;33.17;;;4.00;99.90;;;;;;5053391;28;20110;-78
2022/03/17 06:35:44;;;;;;;53.87;29.27;;;4.10;99.90;;;;;;5052998;28;20048;-78
2022/03/17 06:38:12;;;;;;;54.20;32.30;;;4.20;99.90;;;;;;5053296;28;20045;-76
2022/03/17 06:40:39;;;;;;;57.47;33.27;;;4.20;99.90;;;;;;5054185;28;20049;-78
2022/03/17 06:43:07;;;;;;;54.27;31.97;;;4.20;99.90;;;;;;5054539;28;20055;-76
2022/03/17 06:45:34;;;;;;;56.53;32.87;;;4.20;99.90;;;;;;5056055;28;20041;-77
2022/03/17 06:48:01;;;;;;;60.90;33.33;;;4.30;99.90;;;;;;5055850;28;20508;-78
2022/03/17 06:50:27;;;;;;;56.47;30.73;;;4.30;99.90;;;;;;5054902;28;20087;-77
2022/03/17 06:52:55;;;;;;;67.20;36.83;;;4.30;99.90;;;;;;5053322;28;20056;-77
2022/03/17 06:55:23;;;;;;;59.63;34.43;;;4.40;99.90;;;;;;5052852;28;20047;-77
2022/03/17 06:57:50;;;;;;;56.87;32.13;;;4.50;99.90;;;;;;5050916;28;20547;-77
2022/03/17 07:00:21;;;;;;;50.80;31.70;;;4.60;99.90;;;;;;5053016;28;20053;-77
2022/03/17 07:02:48;;;;;;;62.47;34.80;;;4.60;99.90;;;;;;5053359;28;20057;-77
2022/03/17 07:05:15;;;;;;;55.57;33.37;;;4.70;99.90;;;;;;5053255;28;20037;-76
2022/03/17 07:07:42;;;;;;;66.00;36.07;;;4.70;99.90;;;;;;5057357;28;20052;-76
2022/03/17 07:10:12;;;;;;;53.90;31.93;;;4.80;99.90;;;;;;5056750;28;20049;-76
2022/03/17 07:12:41;;;;;;;55.17;32.60;;;4.80;99.90;;;;;;5056466;28;20044;-77
2022/03/17 07:15:09;;;;;;;59.23;33.67;;;4.90;99.90;;;;;;5057522;28;20084;-77
2022/03/17 07:17:39;;;;;;;62.70;34.87;;;4.90;99.90;;;;;;5056724;28;20095;-79
2022/03/17 07:20:07;;;;;;;58.53;31.27;;;4.90;99.90;;;;;;5056885;28;20406;-79
2022/03/17 07:22:34;;;;;;;61.93;34.87;;;5.00;99.90;;;;;;5056458;28;20045;-82
2022/03/17 07:25:00;;;;;;;62.77;35.00;;;5.10;99.90;;;;;;5056739;28;20049;-78
2022/03/17 07:27:27;;;;;;;62.30;35.67;;;5.10;99.90;;;;;;5056943;28;20179;-77
2022/03/17 07:29:55;;;;;;;132.30;75.57;;;5.20;99.90;;;;;;5056480;28;20045;-77
2022/03/17 07:32:22;;;;;;;66.87;41.53;;;5.30;99.90;;;;;;5055755;28;20556;-76
2022/03/17 07:34:49;;;;;;;68.80;36.20;;;5.40;99.90;;;;;;5048504;28;20051;-77
2022/03/17 07:37:16;;;;;;;64.57;34.50;;;5.40;99.90;;;;;;5059095;28;20102;-78
2022/03/17 07:39:46;;;;;;;61.40;33.30;;;5.50;99.90;;;;;;5056281;28;20053;-76
2022/03/17 07:42:13;;;;;;;57.87;33.07;;;5.60;99.90;;;;;;5056650;28;20428;-76
2022/03/17 07:44:40;;;;;;;56.83;31.70;;;5.60;99.90;;;;;;5055858;28;20068;-75
2022/03/17 07:47:08;;;;;;;67.50;37.10;;;5.70;99.90;;;;;;5056135;28;20051;-76
2022/03/17 07:49:35;;;;;;;65.90;35.37;;;5.80;99.90;;;;;;5062265;28;20072;-79
2022/03/17 07:52:02;;;;;;;66.40;36.10;;;5.80;99.90;;;;;;5066493;28;20045;-75
2022/03/17 07:54:29;;;;;;;64.80;34.73;;;5.90;99.90;;;;;;5056793;28;20483;-78
2022/03/17 07:56:56;;;;;;;58.20;35.10;;;6.00;99.90;;;;;;5055133;28;20076;-76
2022/03/17 07:59:24;;;;;;;59.13;35.50;;;6.20;99.90;;;;;;5055429;28;20490;-76
2022/03/17 08:01:50;;;;;;;62.90;34.80;;;6.20;99.90;;;;;;5056216;28;20084;-77
2022/03/17 08:04:18;;;;;;;63.80;35.87;;;6.40;99.90;;;;;;5056054;28;20462;-74
2022/03/17 08:06:45;;;;;;;56.23;32.83;;;6.50;99.90;;;;;;5056223;28;20045;-76
2022/03/17 08:09:12;;;;;;;63.10;35.03;;;6.50;99.90;;;;;;5056667;28;20045;-76
2022/03/17 08:11:39;;;;;;;62.80;32.50;;;6.70;99.90;;;;;;5055488;28;20502;-76
2022/03/17 08:14:08;;;;;;;60.80;34.53;;;6.70;99.90;;;;;;5055922;28;20044;-77
2022/03/17 08:16:35;;;;;;;65.67;36.37;;;6.70;99.90;;;;;;5055533;28;20392;-79
2022/03/17 08:19:02;;;;;;;71.77;35.47;;;6.70;99.90;;;;;;5055563;28;20117;-78
2022/03/17 08:21:30;;;;;;;59.67;33.37;;;6.80;99.90;;;;;;5055380;28;20098;-77
2022/03/17 08:23:56;;;;;;;59.40;34.03;;;6.90;99.90;;;;;;5055796;28;20041;-77
2022/03/17 08:26:23;;;;;;;55.50;33.20;;;7.00;99.90;;;;;;5056182;28;20041;-82
2022/03/17 08:28:50;;;;;;;62.23;36.80;;;7.10;99.90;;;;;;5056090;28;20053;-82
2022/03/17 08:31:16;;;;;;;58.40;31.87;;;7.10;99.90;;;;;;5054685;28;20045;-83
2022/03/17 08:33:43;;;;;;;55.37;30.70;;;7.30;99.90;;;;;;5053293;28;20499;-81
2022/03/17 08:36:10;;;;;;;66.17;33.83;;;7.30;99.90;;;;;;5054546;28;20048;-77
2022/03/17 08:38:38;;;;;;;56.13;34.13;;;7.40;99.90;;;;;;5055604;28;20384;-84
2022/03/17 08:41:05;;;;;;;66.23;34.87;;;7.40;99.90;;;;;;5055574;28;20056;-80
2022/03/17 08:43:32;;;;;;;50.90;32.40;;;7.40;99.90;;;;;;5054758;28;20052;-77
2022/03/17 08:51:41;;;;;;;60.00;31.37;;;7.50;99.90;;;;;;4993690;28;20046;-79
2022/03/17 08:54:10;;;;;;;60.90;35.87;;;7.50;99.90;;;;;;4993567;28;20046;-78
2022/03/17 08:56:37;;;;;;;61.17;32.13;;;7.60;99.90;;;;;;4993141;28;20046;-79
2022/03/17 08:59:05;;;;;;;60.50;34.67;;;7.60;99.90;;;;;;4993162;28;20053;-78
2022/03/17 09:01:32;;;;;;;61.40;34.17;;;7.60;99.90;;;;;;4993749;28;20050;-77
2022/03/17 09:04:03;;;;;;;55.57;33.53;;;7.60;99.90;;;;;;4993858;28;20433;-76
2022/03/17 09:06:29;;;;;;;57.50;33.20;;;7.70;99.90;;;;;;4993600;28;20043;-81
2022/03/17 09:08:56;;;;;;;56.70;34.10;;;7.70;99.90;;;;;;4993661;28;20058;-82
2022/03/17 09:11:24;;;;;;;55.17;34.27;;;7.80;99.90;;;;;;4994071;28;20042;-80
2022/03/17 09:13:52;;;;;;;62.07;34.27;;;7.90;99.90;;;;;;4993571;28;20137;-81
2022/03/17 09:16:18;;;;;;;59.90;34.60;;;8.00;99.90;;;;;;4993286;28;20093;-81
2022/03/17 09:18:45;;;;;;;58.77;35.73;;;8.10;99.90;;;;;;4992918;28;20046;-80
2022/03/17 09:21:12;;;;;;;60.43;33.37;;;8.10;99.90;;;;;;4991945;28;20101;-76
2022/03/17 09:23:39;;;;;;;59.83;36.43;;;8.10;99.90;;;;;;5049349;28;20402;-81
2022/03/17 09:26:05;;;;;;;55.23;33.47;;;8.10;99.90;;;;;;5054483;28;20049;-84
2022/03/17 09:28:35;;;;;;;52.53;35.77;;;8.10;99.90;;;;;;5053009;28;20454;-75
2022/03/17 09:31:02;;;;;;;55.83;32.83;;;8.20;99.90;;;;;;5053493;28;20514;-76
2022/03/17 09:33:28;;;;;;;55.60;33.20;;;8.20;99.90;;;;;;5053885;28;20569;-79
2022/03/17 09:35:55;;;;;;;61.43;32.27;;;8.20;99.90;;;;;;5053400;28;20057;-79
2022/03/17 09:38:23;;;;;;;62.77;37.30;;;8.30;99.90;;;;;;5053692;28;20048;-78
2022/03/17 09:40:50;;;;;;;57.10;35.30;;;8.30;99.90;;;;;;5053789;28;20525;-77
2022/03/17 09:43:21;;;;;;;62.77;35.00;;;8.40;99.90;;;;;;5050958;28;20449;-78
2022/03/17 09:45:51;;;;;;;55.95;32.88;;;8.50;99.90;;;;;;5054178;28;20495;-77
2022/03/17 09:48:20;;;;;;;57.50;30.70;;;8.50;99.90;;;;;;5057658;28;20075;-80
2022/03/17 09:50:50;;;;;;;54.97;34.97;;;8.60;99.90;;;;;;5058067;28;20045;-77
2022/03/17 09:53:16;;;;;;;59.37;36.63;;;8.60;99.90;;;;;;5058106;28;20041;-77
2022/03/17 09:55:44;;;;;;;52.73;33.00;;;8.60;99.90;;;;;;5056643;28;20052;-77
2022/03/17 09:58:11;;;;;;;52.87;32.30;;;8.70;99.90;;;;;;5054690;28;20051;-80
2022/03/17 10:00:52;;;;;;;59.67;34.50;;;8.70;99.90;;;;;;5059549;28;20053;-85
2022/03/17 10:03:22;;;;;;;57.23;34.50;;;8.90;99.90;;;;;;5055158;28;20045;-78
2022/03/17 10:05:49;;;;;;;61.10;34.70;;;8.90;99.90;;;;;;5053075;28;20487;-78
2022/03/17 10:08:17;;;;;;;56.17;32.93;;;8.80;99.90;;;;;;5053364;28;20550;-77
2022/03/17 10:10:45;;;;;;;55.07;33.93;;;8.70;99.90;;;;;;5053361;28;20541;-76
2022/03/17 10:13:14;;;;;;;63.83;34.50;;;8.70;99.90;;;;;;5055170;28;20049;-81
2022/03/17 10:15:42;;;;;;;59.17;36.30;;;8.80;99.90;;;;;;5055561;28;20045;-83
2022/03/17 10:18:23;;;;;;;63.57;34.00;;;8.80;99.90;;;;;;5056462;28;20052;-81
2022/03/17 10:21:07;;;;;;;55.05;33.00;;;8.80;99.90;;;;;;5054182;28;20045;-79
2022/03/17 10:23:35;;;;;;;158.77;99.22;;;8.90;99.90;;;;;;5055103;28;20465;-79
2022/03/17 10:26:01;;;;;;;71.13;44.10;;;9.10;99.90;;;;;;5054645;28;20148;-77
2022/03/17 10:28:28;;;;;;;69.88;36.30;;;9.20;99.90;;;;;;5052855;28;20045;-78
2022/03/17 10:31:05;;;;;;;54.07;32.90;;;9.20;99.90;;;;;;5052695;28;20052;-79
2022/03/17 10:33:35;;;;;;;58.27;34.77;;;9.30;99.90;;;;;;5054608;28;20119;-87
2022/03/17 10:36:15;;;;;;;55.28;34.42;;;9.30;99.90;;;;;;5055069;28;20055;-81
2022/03/17 10:38:43;;;;;;;58.38;32.17;;;9.40;99.90;;;;;;5053244;28;20495;-75
2022/03/17 10:41:12;;;;;;;58.20;31.87;;;9.40;99.90;;;;;;5052512;28;20077;-75
2022/03/17 10:43:41;;;;;;;56.58;33.40;;;9.50;99.90;;;;;;5052709;28;20403;-76
2022/03/17 10:46:11;;;;;;;51.33;29.58;;;9.50;99.90;;;;;;5052688;28;20049;-77
2022/03/17 10:48:53;;;;;;;59.53;32.95;;;9.50;99.90;;;;;;5053961;28;20057;-79
2022/03/17 10:51:30;;;;;;;;;;;9.60;99.90;;;;;;5061006;28;20049;-81
2022/03/17 10:54:03;;;;;;;46.00;27.98;;;9.70;99.90;;;;;;5045659;28;19921;-81
2022/03/17 10:56:30;;;;;;;54.92;31.70;;;9.60;99.90;;;;;;5053672;28;20517;-83
2022/03/17 10:58:59;;;;;;;55.10;30.52;;;9.70;99.90;;;;;;5053528;28;20118;-81
2022/03/17 11:01:37;;;;;;;49.83;29.77;;;9.80;99.90;;;;;;5036720;28;20493;-78
2022/03/17 11:04:05;;;;;;;48.13;29.33;;;9.70;99.90;;;;;;5053090;28;20052;-78
2022/03/17 11:06:32;;;;;;;45.42;27.77;;;9.80;99.90;;;;;;5053204;28;20499;-81
2022/03/17 11:09:00;;;;;;;54.10;30.92;;;9.80;99.90;;;;;;5053321;28;20056;-76
2022/03/17 11:11:28;;;;;;;50.22;27.83;;;10.00;99.90;;;;;;5053004;28;20045;-77
2022/03/17 11:13:56;;;;;;;49.03;28.48;;;10.00;99.90;;;;;;5053557;28;20055;-83
2022/03/17 11:16:25;;;;;;;48.67;29.00;;;10.20;99.90;;;;;;5056567;28;20053;-84
2022/03/17 11:18:55;;;;;;;51.20;30.65;;;10.30;99.90;;;;;;5052847;28;20450;-76
2022/03/17 11:21:29;;;;;;;44.55;27.15;;;10.40;99.90;;;;;;5053276;28;20056;-78
2022/03/17 11:24:00;;;;;;;45.67;30.00;;;10.60;99.90;;;;;;5052482;28;20095;-77
2022/03/17 11:26:34;;;;;;;46.47;26.95;;;10.60;99.90;;;;;;5052823;28;20507;-79
2022/03/17 11:29:07;;;;;;;45.88;31.20;;;10.70;99.90;;;;;;5052590;28;20513;-80
2022/03/17 11:32:01;;;;;;;47.95;28.27;;;10.70;99.90;;;;;;5052409;28;20118;-79
2022/03/17 11:34:47;;;;;;;45.20;29.10;;;10.80;99.90;;;;;;5052774;28;20126;-77
2022/03/17 11:37:27;;;;;;;47.05;30.35;;;10.70;99.90;;;;;;5053440;28;20135;-78
2022/03/17 11:39:55;;;;;;;50.00;31.15;;;10.80;99.90;;;;;;5052521;28;20480;-78
2022/03/17 11:42:34;;;;;;;48.60;30.38;;;11.10;99.90;;;;;;5053026;28;20065;-78
2022/03/17 11:45:34;;;;;;;54.45;31.95;;;11.20;99.90;;;;;;5052666;28;20053;-78
2022/03/17 11:48:02;;;;;;;49.72;29.30;;;11.20;99.90;;;;;;5053403;28;20088;-77
2022/03/17 11:50:32;;;;;;;55.25;32.42;;;11.30;99.90;;;;;;5053090;28;20175;-80
2022/03/17 11:53:04;;;;;;;103.32;56.85;;;11.30;99.90;;;;;;5055632;28;20045;-80
2022/03/17 11:55:35;;;;;;;104.35;63.80;;;11.20;99.90;;;;;;5056260;28;20490;-79
2022/03/17 11:58:23;;;;;;;49.72;32.78;;;11.30;99.90;;;;;;5057451;28;20083;-80
2022/03/17 12:00:53;;;;;;;51.40;31.38;;;11.50;99.90;;;;;;5053700;28;20140;-81
2022/03/17 12:03:30;;;;;;;54.42;31.40;;;11.40;99.90;;;;;;5056975;28;20415;-78
2022/03/17 12:06:15;;;;;;;49.88;31.92;;;11.40;99.90;;;;;;5056438;28;20041;-81
2022/03/17 12:08:58;;;;;;;52.50;34.53;;;11.30;99.90;;;;;;5057062;28;20048;-78
2022/03/17 12:11:26;;;;;;;50.53;30.33;;;11.30;99.90;;;;;;5056202;28;20055;-79
2022/03/17 12:14:19;;;;;;;54.30;31.67;;;11.30;99.90;;;;;;5055978;28;20098;-77
2022/03/17 12:16:48;;;;;;;49.97;29.95;;;11.30;99.90;;;;;;5055980;28;20091;-79
2022/03/17 12:19:25;;;;;;;56.20;31.85;;;11.30;99.90;;;;;;5057616;28;20052;-79
2022/03/17 12:22:19;;;;;;;46.60;29.83;;;11.30;99.90;;;;;;5057829;28;20044;-79
2022/03/17 12:24:49;;;;;;;51.55;31.08;;;11.30;99.90;;;;;;5039481;28;20100;-78
2022/03/17 12:27:22;;;;;;;53.60;30.77;;;11.40;99.90;;;;;;5058600;28;20102;-78
2022/03/17 12:29:50;;;;;;;52.63;31.58;;;11.40;99.90;;;;;;5058151;28;20079;-78
2022/03/17 12:32:18;;;;;;;56.95;28.42;;;11.40;99.90;;;;;;5061692;28;20049;-79
2022/03/17 12:34:46;;;;;;;50.15;30.42;;;11.60;99.90;;;;;;5080718;28;20071;-79
2022/03/17 12:37:13;;;;;;;51.63;31.17;;;11.70;99.90;;;;;;5080646;28;20033;-78
2022/03/17 12:39:41;;;;;;;45.70;30.25;;;11.90;99.90;;;;;;5079087;28;20053;-79
2022/03/17 12:42:18;;;;;;;48.72;29.33;;;11.90;99.90;;;;;;5056075;28;20144;-80
2022/03/17 12:44:56;;;;;;;48.75;28.98;;;11.90;99.90;;;;;;5063345;28;20075;-79
2022/03/17 12:47:28;;;;;;;52.63;30.65;;;12.00;99.90;;;;;;5046844;28;20045;-78
2022/03/17 12:49:56;;;;;;;;;;;12.10;99.90;;;;;;5036959;28;20049;-80
2022/03/17 12:52:24;;;;;;;48.13;29.30;;;12.10;99.90;;;;;;5035856;28;19921;-79
2022/03/17 12:54:52;;;;;;;48.33;28.52;;;12.10;99.90;;;;;;5042675;28;20045;-83
2022/03/17 12:57:21;;;;;;;50.17;28.45;;;12.20;99.90;;;;;;5063428;28;20052;-83
2022/03/17 12:59:47;;;;;;;47.63;28.30;;;12.00;99.90;;;;;;5069270;28;20049;-84